Time;durP1;ratioP1;P1;durP2;ratioP2;P2;SDS_P1;SDS_P2;PMS_P1;PMS_P2;Temp;Humidity;BMP_temperature;BMP_pressure;BME280_temperature;BME280_humidity;BME280_pressure;Samples;Min_cycle;Max_cycle;Signal;HPM_P1;HPM_P2
2023/07/31 00:01:29;;;;;;;1.70;0.90;;;;;;;17.63;93.71;99837.78;5034267;28;20216;-79
2023/07/31 00:03:57;;;;;;;1.93;1.30;;;;;;;17.37;93.73;99837.47;5034722;28;20208;-78
2023/07/31 00:06:23;;;;;;;1.67;1.10;;;;;;;17.44;94.00;99817.75;5034681;28;20214;-79
2023/07/31 00:08:50;;;;;;;1.40;1.30;;;;;;;17.47;94.31;99814.06;5039673;28;20243;-78
2023/07/31 00:11:16;;;;;;;1.50;1.20;;;;;;;17.52;93.88;99817.31;5055010;28;20268;-78
2023/07/31 00:13:42;;;;;;;1.70;1.20;;;;;;;17.54;93.34;99822.47;5054608;28;20234;-78
2023/07/31 00:16:09;;;;;;;1.40;1.10;;;;;;;17.55;92.94;99834.75;5054689;28;20334;-80
2023/07/31 00:18:35;;;;;;;1.23;1.10;;;;;;;17.57;92.56;99838.13;5053663;28;20225;-80
2023/07/31 00:21:03;;;;;;;2.30;1.13;;;;;;;17.56;92.53;99847.84;5055200;28;20213;-78
2023/07/31 00:23:29;;;;;;;1.10;1.00;;;;;;;17.32;92.30;99862.41;5054448;28;20214;-78
2023/07/31 00:25:56;;;;;;;1.10;1.00;;;;;;;17.25;94.09;99830.28;5054883;28;20211;-79
2023/07/31 00:28:22;;;;;;;1.77;1.10;;;;;;;17.22;94.12;99815.47;5055279;28;20269;-79
2023/07/31 00:30:49;;;;;;;2.57;1.00;;;;;;;17.33;94.58;99796.38;5055889;28;20259;-78
2023/07/31 00:33:15;;;;;;;1.83;0.90;;;;;;;17.37;94.72;99795.28;5054843;28;20207;-80
2023/07/31 00:35:42;;;;;;;2.37;1.40;;;;;;;17.33;94.00;99806.09;5054985;28;20218;-78
2023/07/31 00:38:09;;;;;;;1.17;0.90;;;;;;;17.32;93.94;99812.28;5054219;28;20211;-79
2023/07/31 00:40:37;;;;;;;0.90;0.80;;;;;;;17.38;94.81;99798.75;5055531;28;20226;-79
2023/07/31 00:43:04;;;;;;;2.37;1.10;;;;;;;17.34;94.06;99800.72;5055296;28;20251;-79
2023/07/31 00:45:30;;;;;;;1.30;1.00;;;;;;;17.39;93.82;99808.38;5055331;28;20294;-78
2023/07/31 00:47:57;;;;;;;1.90;0.87;;;;;;;17.40;94.56;99788.97;5054630;28;20263;-81
2023/07/31 00:50:25;;;;;;;2.43;1.10;;;;;;;17.45;94.00;99803.59;5054830;28;20231;-79
2023/07/31 00:52:51;;;;;;;1.90;0.90;;;;;;;17.43;93.71;99810.75;5054275;28;20206;-79
2023/07/31 00:55:19;;;;;;;2.57;0.87;;;;;;;17.50;94.32;99807.75;5054999;28;20223;-79
2023/07/31 00:57:46;;;;;;;1.47;0.80;;;;;;;17.50;94.48;99802.47;5055800;28;20727;-80
2023/07/31 01:00:13;;;;;;;1.77;0.77;;;;;;;17.52;94.55;99790.91;5055947;28;20220;-79
2023/07/31 01:02:39;;;;;;;2.73;1.03;;;;;;;17.55;94.85;99780.16;5055853;28;20212;-80
2023/07/31 01:05:06;;;;;;;1.63;1.07;;;;;;;17.49;94.99;99784.97;5055866;28;20688;-78
2023/07/31 01:07:42;;;;;;;1.20;1.10;;;;;;;17.51;94.85;99783.06;5055445;28;20242;-80
2023/07/31 01:10:15;;;;;;;1.40;0.80;;;;;;;17.51;95.50;99772.53;5051859;28;20238;-79
2023/07/31 01:12:43;;;;;;;1.33;0.90;;;;;;;17.52;94.39;99784.75;5056225;28;20270;-80
2023/07/31 01:15:11;;;;;;;1.10;1.00;;;;;;;17.50;95.80;99769.00;5056897;28;20235;-79
2023/07/31 01:17:38;;;;;;;0.87;0.80;;;;;;;17.47;95.71;99762.13;5056820;28;20328;-80
2023/07/31 01:20:11;;;;;;;2.97;1.93;;;;;;;17.25;96.05;99762.53;5052101;28;20228;-79
2023/07/31 01:23:16;;;;;;;1.37;1.00;;;;;;;17.30;97.19;99724.47;5056256;28;20580;-79
2023/07/31 01:25:57;;;;;;;1.47;0.90;;;;;;;17.37;97.41;99717.91;5041496;28;20206;-79
2023/07/31 01:28:28;;;;;;;1.80;0.90;;;;;;;17.34;97.75;99713.66;5055719;28;20253;-78
2023/07/31 01:30:59;;;;;;;1.97;0.80;;;;;;;17.06;98.94;99686.25;5055113;28;20230;-80
2023/07/31 01:33:26;;;;;;;0.90;0.70;;;;;;;17.19;98.50;99688.19;5056948;28;20559;-79
2023/07/31 01:35:53;;;;;;;0.60;0.60;;;;;;;17.15;99.91;99671.69;5056443;28;20697;-79
2023/07/31 01:38:21;;;;;;;0.60;0.60;;;;;;;17.18;99.78;99662.75;5058785;28;20197;-80
2023/07/31 01:40:53;;;;;;;1.27;0.67;;;;;;;17.04;99.99;99656.50;5052580;28;20204;-80
2023/07/31 01:43:20;;;;;;;0.43;0.43;;;;;;;17.09;100.00;99645.69;5061338;28;20207;-81
2023/07/31 01:45:46;;;;;;;0.63;0.50;;;;;;;17.04;100.00;99634.56;5061951;28;20583;-80
2023/07/31 01:48:13;;;;;;;0.73;0.50;;;;;;;16.98;100.00;99630.47;5062198;28;20212;-81
2023/07/31 01:50:39;;;;;;;0.67;0.50;;;;;;;17.04;100.00;99635.38;5062076;28;20198;-81
2023/07/31 01:53:06;;;;;;;1.33;0.73;;;;;;;17.12;100.00;99626.19;5062161;28;20233;-80
2023/07/31 01:55:32;;;;;;;0.30;0.30;;;;;;;17.17;100.00;99629.41;5061421;28;20231;-80
2023/07/31 01:58:00;;;;;;;0.50;0.50;;;;;;;17.16;100.00;99625.06;5061819;28;20206;-81
2023/07/31 02:00:26;;;;;;;0.50;0.50;;;;;;;17.19;100.00;99625.75;5061232;28;20227;-80
2023/07/31 02:02:53;;;;;;;0.73;0.67;;;;;;;17.21;100.00;99623.03;5061026;28;20724;-80
2023/07/31 02:05:19;;;;;;;0.90;0.50;;;;;;;17.15;100.00;99612.84;5046401;28;20224;-80
2023/07/31 02:07:46;;;;;;;0.73;0.60;;;;;;;17.10;100.00;99613.09;5060991;28;20198;-81
2023/07/31 02:10:12;;;;;;;2.87;0.47;;;;;;;17.03;100.00;99603.88;5058998;28;20231;-80
2023/07/31 02:12:38;;;;;;;0.70;0.50;;;;;;;17.04;100.00;99603.75;5061112;28;20683;-79
2023/07/31 02:15:07;;;;;;;0.40;0.40;;;;;;;17.08;100.00;99607.06;5051191;28;20222;-81
2023/07/31 02:17:34;;;;;;;0.83;0.70;;;;;;;17.06;100.00;99604.50;5059926;28;20597;-81
2023/07/31 02:20:01;;;;;;;1.17;0.40;;;;;;;17.04;100.00;99584.44;5049887;28;20277;-81
2023/07/31 02:22:27;;;;;;;0.93;0.57;;;;;;;17.11;100.00;99593.72;5040005;28;20211;-80
2023/07/31 02:24:53;;;;;;;0.50;0.50;;;;;;;17.12;100.00;99602.47;5048733;28;20203;-80
2023/07/31 02:27:23;;;;;;;1.73;0.53;;;;;;;17.12;100.00;99586.63;5040998;28;20242;-80
2023/07/31 02:29:50;;;;;;;0.90;0.47;;;;;;;17.16;100.00;99581.06;5041015;28;20227;-81
2023/07/31 02:32:18;;;;;;;0.70;0.40;;;;;;;17.13;100.00;99588.34;5041765;28;20791;-81
2023/07/31 02:34:44;;;;;;;0.70;0.50;;;;;;;17.05;100.00;99588.81;5053503;28;20251;-81
2023/07/31 02:37:11;;;;;;;0.50;0.50;;;;;;;17.09;100.00;99589.47;5048483;28;20764;-80
2023/07/31 02:39:37;;;;;;;0.50;0.40;;;;;;;17.11;100.00;99585.78;5048997;28;20232;-81
2023/07/31 02:42:04;;;;;;;0.90;0.60;;;;;;;17.12;100.00;99581.38;5040441;28;20210;-80
2023/07/31 02:44:30;;;;;;;0.50;0.50;;;;;;;17.15;100.00;99603.13;5053417;28;20201;-80
2023/07/31 02:46:57;;;;;;;1.67;0.50;;;;;;;16.98;100.00;99590.94;5051669;28;20222;-80
2023/07/31 02:49:24;;;;;;;1.50;0.87;;;;;;;17.05;100.00;99588.81;5062089;28;20225;-78
2023/07/31 02:51:51;;;;;;;0.33;0.33;;;;;;;16.97;100.00;99589.25;5058958;28;20669;-78
2023/07/31 02:54:17;;;;;;;1.30;0.57;;;;;;;16.90;100.00;99581.78;5060338;28;20211;-78
2023/07/31 02:56:44;;;;;;;1.90;1.00;;;;;;;16.92;100.00;99572.00;5051220;28;20216;-78
2023/07/31 02:59:10;;;;;;;0.50;0.50;;;;;;;16.91;100.00;99565.03;5051646;28;20619;-78
2023/07/31 03:01:37;;;;;;;0.57;0.57;;;;;;;16.83;100.00;99560.22;5051468;28;20202;-78
2023/07/31 03:04:03;;;;;;;0.60;0.60;;;;;;;16.74;100.00;99555.47;5048218;28;20202;-80
2023/07/31 03:06:31;;;;;;;4.63;0.40;;;;;;;16.87;100.00;99559.09;5044185;28;20214;-81
2023/07/31 03:08:57;;;;;;;0.87;0.50;;;;;;;16.68;100.00;99560.13;5048946;28;20238;-80
2023/07/31 03:11:24;;;;;;;0.40;0.40;;;;;;;16.84;100.00;99556.63;5058918;28;20235;-80
2023/07/31 03:13:50;;;;;;;0.50;0.50;;;;;;;16.90;100.00;99566.81;5059606;28;20208;-80
2023/07/31 03:16:17;;;;;;;0.80;0.50;;;;;;;17.00;100.00;99585.56;5058095;28;20234;-79
2023/07/31 03:18:43;;;;;;;0.67;0.50;;;;;;;17.02;100.00;99584.53;5052807;28;20227;-81
2023/07/31 03:21:09;;;;;;;0.50;0.50;;;;;;;17.01;100.00;99569.69;5055562;28;20202;-80
2023/07/31 03:23:38;;;;;;;0.53;0.53;;;;;;;16.94;100.00;99575.41;5057243;28;20203;-80
2023/07/31 03:26:09;;;;;;;0.90;0.50;;;;;;;16.72;100.00;99566.06;5057991;28;20306;-79
2023/07/31 03:28:35;;;;;;;1.00;0.57;;;;;;;16.65;100.00;99568.22;5057808;28;20227;-79
2023/07/31 03:31:02;;;;;;;0.50;0.50;;;;;;;16.34;100.00;99553.34;5049454;28;20229;-81
2023/07/31 03:33:28;;;;;;;1.43;0.60;;;;;;;16.46;100.00;99535.97;5056913;28;20198;-81
2023/07/31 03:35:55;;;;;;;1.07;0.50;;;;;;;16.36;100.00;99524.28;5056808;28;20228;-80
2023/07/31 03:38:21;;;;;;;2.53;0.67;;;;;;;16.34;100.00;99516.47;5057388;28;20212;-80
2023/07/31 03:40:49;;;;;;;0.70;0.70;;;;;;;16.09;100.00;99522.28;5049830;28;20215;-80
2023/07/31 03:43:16;;;;;;;1.40;0.70;;;;;;;16.20;100.00;99501.47;5054043;28;20294;-80
2023/07/31 03:45:43;;;;;;;0.60;0.60;;;;;;;16.15;100.00;99508.75;5048059;28;20207;-79
2023/07/31 03:48:09;;;;;;;0.80;0.80;;;;;;;16.23;100.00;99508.31;5053690;28;20210;-78
2023/07/31 03:50:35;;;;;;;0.60;0.60;;;;;;;16.36;100.00;99519.03;5054250;28;20273;-79
2023/07/31 03:53:02;;;;;;;2.20;0.80;;;;;;;16.50;100.00;99531.38;5056105;28;20215;-78
2023/07/31 03:55:28;;;;;;;1.47;1.20;;;;;;;16.51;100.00;99556.78;5049136;28;20230;-80
2023/07/31 03:57:56;;;;;;;0.50;0.50;;;;;;;16.58;100.00;99553.72;5056640;28;20214;-79
2023/07/31 04:00:23;;;;;;;0.83;0.70;;;;;;;16.61;100.00;99585.16;5057299;28;20247;-79
2023/07/31 04:02:49;;;;;;;0.60;0.60;;;;;;;16.60;100.00;99579.97;5056769;28;20263;-79
2023/07/31 04:05:16;;;;;;;1.90;0.80;;;;;;;16.67;100.00;99589.22;5056985;28;20216;-80
2023/07/31 04:07:42;;;;;;;0.60;0.60;;;;;;;16.66;100.00;99604.16;5057042;28;20221;-79
2023/07/31 04:10:09;;;;;;;0.50;0.50;;;;;;;16.66;100.00;99595.44;5052456;28;20232;-80
2023/07/31 04:12:35;;;;;;;0.60;0.60;;;;;;;16.48;100.00;99585.00;5052737;28;20205;-79
2023/07/31 04:15:04;;;;;;;2.20;0.73;;;;;;;16.39;100.00;99587.31;5041021;28;20688;-80
2023/07/31 04:17:30;;;;;;;0.93;0.70;;;;;;;16.39;100.00;99569.75;5043005;28;20227;-81
2023/07/31 04:19:56;;;;;;;1.00;0.60;;;;;;;16.39;100.00;99561.84;5051722;28;20226;-81
2023/07/31 04:22:23;;;;;;;0.43;0.43;;;;;;;16.41;100.00;99559.97;5053268;28;20231;-80
2023/07/31 04:24:49;;;;;;;0.50;0.50;;;;;;;16.51;100.00;99559.41;5037523;28;20687;-80
2023/07/31 04:27:16;;;;;;;0.50;0.43;;;;;;;16.58;100.00;99579.22;5046209;28;20199;-80
2023/07/31 04:29:44;;;;;;;0.37;0.30;;;;;;;16.62;100.00;99578.09;5042259;28;20638;-80
2023/07/31 04:32:12;;;;;;;0.40;0.30;;;;;;;16.63;100.00;99588.56;5055003;28;20239;-79
2023/07/31 04:34:38;;;;;;;0.57;0.20;;;;;;;16.64;100.00;99592.03;5049112;28;20237;-80
2023/07/31 04:37:04;;;;;;;0.30;0.30;;;;;;;16.66;100.00;99601.53;5036767;28;20274;-79
2023/07/31 04:39:31;;;;;;;0.30;0.30;;;;;;;16.69;100.00;99595.25;5053231;28;20320;-79
2023/07/31 04:41:57;;;;;;;0.77;0.40;;;;;;;16.68;100.00;99594.38;5052696;28;20621;-81
2023/07/31 04:44:24;;;;;;;0.30;0.30;;;;;;;16.67;100.00;99592.72;5054413;28;20215;-82
2023/07/31 04:46:50;;;;;;;0.63;0.30;;;;;;;16.59;100.00;99597.56;5051237;28;20254;-81
2023/07/31 04:49:19;;;;;;;0.30;0.30;;;;;;;16.46;100.00;99583.41;5048719;28;20713;-80
2023/07/31 04:51:46;;;;;;;0.70;0.50;;;;;;;16.21;100.00;99563.72;5051175;28;20207;-80
2023/07/31 04:54:14;;;;;;;0.30;0.30;;;;;;;16.30;100.00;99548.34;5054330;28;20664;-79
2023/07/31 04:56:41;;;;;;;0.60;0.60;;;;;;;16.38;100.00;99549.59;5051813;28;20222;-79
2023/07/31 04:59:07;;;;;;;0.40;0.40;;;;;;;16.41;100.00;99540.66;5056201;28;20234;-81
2023/07/31 05:01:34;;;;;;;1.37;0.80;;;;;;;16.44;100.00;99538.69;5043483;28;20210;-81
2023/07/31 05:04:00;;;;;;;1.43;1.07;;;;;;;16.50;100.00;99534.03;5056006;28;20218;-81
2023/07/31 05:06:28;;;;;;;2.13;1.40;;;;;;;16.57;100.00;99532.72;5054410;28;20198;-81
2023/07/31 05:08:54;;;;;;;1.83;1.40;;;;;;;16.60;100.00;99538.66;5055389;28;20284;-82
2023/07/31 05:11:21;;;;;;;1.90;1.40;;;;;;;16.47;100.00;99535.03;5056488;28;20715;-79
2023/07/31 05:13:47;;;;;;;2.63;1.80;;;;;;;16.55;100.00;99534.59;5055422;28;20219;-80
2023/07/31 05:16:13;;;;;;;2.53;1.83;;;;;;;16.56;100.00;99516.06;5054445;28;20224;-82
2023/07/31 05:18:41;;;;;;;2.47;2.27;;;;;;;16.38;100.00;99509.25;5058939;28;20221;-81
2023/07/31 05:21:07;;;;;;;3.27;2.73;;;;;;;16.37;100.00;99502.25;5057679;28;20210;-80
2023/07/31 05:23:35;;;;;;;3.33;3.10;;;;;;;16.51;100.00;99504.09;5054912;28;20207;-79
2023/07/31 05:26:05;;;;;;;4.37;3.37;;;;;;;16.49;100.00;99498.94;5054268;28;20205;-81
2023/07/31 05:28:31;;;;;;;4.27;3.97;;;;;;;16.53;100.00;99504.84;5054493;28;20728;-79
2023/07/31 05:31:00;;;;;;;4.73;4.43;;;;;;;16.50;100.00;99503.25;5055255;28;20226;-82
2023/07/31 05:33:26;;;;;;;5.50;5.00;;;;;;;16.51;100.00;99494.44;5057400;28;20217;-81
2023/07/31 05:35:53;;;;;;;8.17;4.77;;;;;;;16.54;100.00;99503.94;5056020;28;20216;-80
2023/07/31 05:38:19;;;;;;;6.20;5.60;;;;;;;16.60;100.00;99508.84;5057454;28;20701;-82
2023/07/31 05:40:47;;;;;;;6.83;5.73;;;;;;;16.44;100.00;99500.97;5057013;28;20206;-83
2023/07/31 05:43:14;;;;;;;8.93;5.83;;;;;;;16.44;100.00;99504.47;5058029;28;20206;-81
2023/07/31 05:45:40;;;;;;;7.67;5.33;;;;;;;16.40;100.00;99492.41;5057619;28;20202;-84
2023/07/31 05:48:07;;;;;;;7.00;6.30;;;;;;;16.25;100.00;99482.75;5057845;28;20249;-82
2023/07/31 05:50:34;;;;;;;9.00;6.43;;;;;;;16.44;100.00;99483.38;5057821;28;20742;-82
2023/07/31 05:53:00;;;;;;;7.27;6.00;;;;;;;16.45;100.00;99490.38;5057068;28;20225;-83
2023/07/31 05:55:27;;;;;;;6.60;6.10;;;;;;;16.34;100.00;99494.56;5056750;28;20576;-82
2023/07/31 05:57:55;;;;;;;7.27;5.73;;;;;;;16.47;100.00;99491.13;5058098;28;20250;-81
2023/07/31 06:00:22;;;;;;;5.90;5.30;;;;;;;16.46;100.00;99493.84;5058196;28;20314;-83
2023/07/31 06:02:49;;;;;;;5.97;4.87;;;;;;;16.56;100.00;99492.34;5058450;28;20587;-82
2023/07/31 06:05:15;;;;;;;5.83;4.57;;;;;;;16.63;100.00;99498.97;5059359;28;20612;-83
2023/07/31 06:07:42;;;;;;;4.93;4.47;;;;;;;16.57;100.00;99501.09;5057636;28;20194;-83
2023/07/31 06:10:09;;;;;;;4.67;4.17;;;;;;;16.65;100.00;99506.78;5049129;28;20239;-82
2023/07/31 06:12:36;;;;;;;4.87;4.03;;;;;;;16.68;100.00;99504.78;5049182;28;20293;-83
2023/07/31 06:15:05;;;;;;;4.47;4.07;;;;;;;16.70;100.00;99509.13;5055792;28;20214;-83
2023/07/31 06:17:32;;;;;;;4.23;3.83;;;;;;;16.63;100.00;99519.19;5039611;28;20317;-84
2023/07/31 06:19:58;;;;;;;5.60;4.30;;;;;;;16.54;100.00;99527.63;5057419;28;20238;-84
2023/07/31 06:22:24;;;;;;;5.10;4.70;;;;;;;16.44;100.00;99524.69;5046736;28;20665;-84
2023/07/31 06:25:04;;;;;;;5.87;4.87;;;;;;;16.53;100.00;99520.66;5035439;28;20208;-84
2023/07/31 06:27:30;;;;;;;5.67;5.17;;;;;;;16.55;100.00;99521.41;5037294;28;20201;-84
2023/07/31 06:29:57;;;;;;;8.57;6.50;;;;;;;16.61;100.00;99521.06;5042933;28;20222;-86
2023/07/31 06:32:25;;;;;;;9.07;6.07;;;;;;;16.65;100.00;99527.88;5036869;28;20209;-86
2023/07/31 06:34:51;;;;;;;6.77;5.50;;;;;;;16.60;100.00;99522.00;5035041;28;20245;-84
2023/07/31 06:37:18;;;;;;;7.03;6.30;;;;;;;16.44;100.00;99516.78;5034510;28;20228;-83
2023/07/31 06:39:44;;;;;;;9.20;6.57;;;;;;;16.51;100.00;99509.38;5053166;28;20643;-85
2023/07/31 06:42:11;;;;;;;7.10;6.40;;;;;;;16.28;100.00;99515.03;5038550;28;20228;-84
2023/07/31 06:44:37;;;;;;;8.77;7.80;;;;;;;16.36;100.00;99511.13;5053500;28;20218;-83
2023/07/31 06:47:04;;;;;;;8.33;7.53;;;;;;;16.40;100.00;99512.63;5048872;28;20209;-82
2023/07/31 06:49:39;;;;;;;9.13;7.60;;;;;;;16.53;100.00;99511.00;5044811;28;20977;-83
2023/07/31 06:52:06;;;;;;;9.33;7.93;;;;;;;16.45;100.00;99531.63;5045229;28;20201;-80
2023/07/31 06:54:32;;;;;;;9.23;8.40;;;;;;;16.54;100.00;99527.63;5034712;28;20210;-83
2023/07/31 06:56:58;;;;;;;11.07;8.40;;;;;;;16.46;100.00;99539.47;5041376;28;20231;-84
2023/07/31 06:59:25;;;;;;;9.53;8.63;;;;;;;16.30;100.00;99541.28;5051360;28;20236;-84
2023/07/31 07:01:51;;;;;;;10.53;9.33;;;;;;;16.41;100.00;99522.22;5055756;28;20234;-84
2023/07/31 07:04:18;;;;;;;13.83;9.23;;;;;;;16.43;100.00;99534.38;5047633;28;20260;-81
2023/07/31 07:06:48;;;;;;;10.77;9.10;;;;;;;16.41;100.00;99540.66;5021067;28;20202;-83
2023/07/31 07:09:15;;;;;;;13.03;9.77;;;;;;;16.45;100.00;99537.78;5047664;28;20285;-83
2023/07/31 07:11:41;;;;;;;10.57;8.00;;;;;;;16.50;100.00;99536.66;5043911;28;20202;-81
2023/07/31 07:14:08;;;;;;;11.03;8.60;;;;;;;16.55;100.00;99539.84;5039951;28;20206;-82
2023/07/31 07:16:41;;;;;;;9.77;8.77;;;;;;;16.50;100.00;99549.84;5045037;28;20230;-83
2023/07/31 07:19:16;;;;;;;8.57;7.57;;;;;;;16.58;100.00;99550.22;5055797;28;20226;-82
2023/07/31 07:21:43;;;;;;;8.33;7.53;;;;;;;16.59;100.00;99557.19;5044082;28;20615;-82
2023/07/31 07:24:10;;;;;;;8.77;7.93;;;;;;;16.48;100.00;99556.03;5049760;28;20202;-82
2023/07/31 07:26:37;;;;;;;8.27;7.40;;;;;;;16.41;100.00;99552.06;5045849;28;20588;-83
2023/07/31 07:29:03;;;;;;;8.63;6.73;;;;;;;16.51;100.00;99549.75;5050771;28;20728;-82
2023/07/31 07:31:30;;;;;;;9.23;6.97;;;;;;;16.48;100.00;99552.53;5057206;28;20209;-84
2023/07/31 07:33:57;;;;;;;8.93;6.90;;;;;;;16.52;100.00;99553.22;5052334;28;20684;-81
2023/07/31 07:36:23;;;;;;;9.33;7.20;;;;;;;16.56;100.00;99552.09;5037351;28;20667;-84
2023/07/31 07:38:49;;;;;;;7.83;6.67;;;;;;;16.42;100.00;99547.63;5050502;28;20233;-83
2023/07/31 07:41:17;;;;;;;8.03;6.53;;;;;;;16.46;100.00;99546.53;5044089;28;20210;-83
2023/07/31 07:43:44;;;;;;;7.50;6.30;;;;;;;16.59;100.00;99550.16;5050053;28;20661;-83
2023/07/31 07:46:10;;;;;;;7.70;6.43;;;;;;;16.63;100.00;99556.94;5059611;28;20216;-83
2023/07/31 07:48:37;;;;;;;9.47;6.83;;;;;;;16.56;100.00;99574.03;5047548;28;20223;-82
2023/07/31 07:51:03;;;;;;;6.77;5.90;;;;;;;16.54;100.00;99578.53;5051152;28;20207;-81
2023/07/31 07:53:29;;;;;;;7.27;6.60;;;;;;;16.35;100.00;99580.50;5048830;28;20200;-82
2023/07/31 07:55:56;;;;;;;7.43;6.73;;;;;;;16.49;100.00;99580.59;5053564;28;20213;-82
2023/07/31 07:58:24;;;;;;;7.63;6.27;;;;;;;16.48;100.00;99566.56;5061247;28;20223;-83
2023/07/31 08:00:51;;;;;;;8.77;6.63;;;;;;;16.47;100.00;99577.19;5040406;28;20561;-84
2023/07/31 08:03:18;;;;;;;9.03;6.67;;;;;;;16.58;100.00;99550.22;5046676;28;20209;-82
2023/07/31 08:05:44;;;;;;;8.23;6.67;;;;;;;16.61;100.00;99550.91;5043297;28;20207;-81
2023/07/31 08:08:15;;;;;;;10.27;6.37;;;;;;;16.62;100.00;99573.66;5055112;28;20204;-82
2023/07/31 08:10:41;;;;;;;7.73;6.93;;;;;;;16.71;100.00;99569.66;5043962;28;20220;-84
2023/07/31 08:13:07;;;;;;;6.63;6.00;;;;;;;16.83;100.00;99574.25;5040945;28;20210;-83
2023/07/31 08:15:35;;;;;;;7.37;6.23;;;;;;;16.85;100.00;99569.72;5039044;28;20218;-83
2023/07/31 08:18:02;;;;;;;11.53;6.50;;;;;;;16.95;100.00;99570.03;5039971;28;20231;-85
2023/07/31 08:20:28;;;;;;;8.47;6.37;;;;;;;17.05;100.00;99587.00;5041977;28;20706;-84
2023/07/31 08:22:55;;;;;;;8.33;7.20;;;;;;;17.07;100.00;99598.31;5040776;28;20203;-82
2023/07/31 08:25:21;;;;;;;7.13;6.43;;;;;;;17.11;100.00;99588.44;5043099;28;20215;-83
2023/07/31 08:27:47;;;;;;;8.37;6.97;;;;;;;17.21;100.00;99586.09;5039571;28;20205;-81
2023/07/31 08:30:14;;;;;;;6.97;6.27;;;;;;;17.31;100.00;99589.03;5037090;28;20236;-82
2023/07/31 08:32:42;;;;;;;6.83;6.20;;;;;;;17.37;100.00;99599.22;5035695;28;20209;-81
2023/07/31 08:35:12;;;;;;;7.47;6.60;;;;;;;17.40;100.00;99601.63;5037066;28;20205;-82
2023/07/31 08:37:42;;;;;;;6.90;6.40;;;;;;;17.45;100.00;99607.50;5035448;28;20323;-81
2023/07/31 08:40:09;;;;;;;6.87;6.17;;;;;;;17.43;100.00;99602.31;5036541;28;20312;-81
2023/07/31 08:42:50;;;;;;;6.70;6.00;;;;;;;17.38;100.00;99588.56;5038327;28;20223;-81
2023/07/31 08:45:19;;;;;;;6.17;5.63;;;;;;;17.44;100.00;99598.75;5037576;28;20582;-82
2023/07/31 08:47:50;;;;;;;6.17;5.63;;;;;;;17.25;100.00;99583.16;5037694;28;20275;-84
2023/07/31 08:50:18;;;;;;;7.27;5.43;;;;;;;17.02;100.00;99566.06;5040501;28;20708;-81
2023/07/31 08:52:47;;;;;;;6.00;5.23;;;;;;;17.05;100.00;99544.81;5038753;28;20201;-80
2023/07/31 08:55:13;;;;;;;5.93;5.00;;;;;;;17.15;100.00;99537.19;5040043;28;20212;-83
2023/07/31 08:57:40;;;;;;;8.37;4.83;;;;;;;17.16;100.00;99541.53;5039072;28;20268;-82
2023/07/31 09:00:09;;;;;;;4.97;4.40;;;;;;;16.93;100.00;99536.81;5039599;28;20229;-83
2023/07/31 09:02:38;;;;;;;6.57;4.20;;;;;;;16.68;100.00;99517.13;5041376;28;20238;-83
2023/07/31 09:05:14;;;;;;;4.70;4.27;;;;;;;16.71;100.00;99487.97;5041970;28;20671;-83
2023/07/31 09:07:47;;;;;;;5.47;3.90;;;;;;;16.72;100.00;99473.84;5039740;28;20211;-81
2023/07/31 09:10:47;;;;;;;4.50;3.50;;;;;;;16.91;100.00;99478.91;5056062;28;20224;-84
2023/07/31 09:16:18;;;;;;;3.50;3.20;;;;;;;16.99;100.00;99481.06;4954152;29;20353;-82
2023/07/31 09:18:58;;;;;;;3.97;2.70;;;;;;;17.12;100.00;99482.00;4944559;29;20243;-83
2023/07/31 09:21:30;;;;;;;2.80;2.57;;;;;;;17.22;100.00;99477.00;4987223;28;20230;-82
2023/07/31 09:23:59;;;;;;;2.53;2.33;;;;;;;17.24;100.00;99485.66;5054464;28;20665;-79
2023/07/31 09:26:33;;;;;;;3.60;2.47;;;;;;;17.26;100.00;99482.00;5054356;28;20201;-82
2023/07/31 09:29:07;;;;;;;2.20;2.00;;;;;;;17.34;100.00;99497.34;5054425;28;20708;-83
2023/07/31 09:31:48;;;;;;;2.10;1.87;;;;;;;17.42;100.00;99500.38;5054223;28;20210;-84
2023/07/31 09:34:15;;;;;;;2.77;1.87;;;;;;;17.37;100.00;99509.50;5054718;28;20620;-83
2023/07/31 09:36:56;;;;;;;2.50;2.10;;;;;;;17.38;100.00;99509.41;5045787;28;20243;-82
2023/07/31 09:39:23;;;;;;;2.37;2.17;;;;;;;17.43;100.00;99502.06;5053992;28;20659;-83
2023/07/31 09:42:02;;;;;;;3.03;2.60;;;;;;;17.38;100.00;99509.41;5054150;28;20204;-82
2023/07/31 09:44:50;;;;;;;2.70;2.23;;;;;;;17.40;100.00;99494.34;5054223;28;20214;-83
2023/07/31 09:47:24;;;;;;;2.63;2.00;;;;;;;17.40;100.00;99501.38;5054241;28;20203;-83
2023/07/31 09:49:56;;;;;;;3.23;2.80;;;;;;;17.45;100.00;99509.88;5045336;28;20230;-82
2023/07/31 09:52:29;;;;;;;3.10;2.90;;;;;;;17.35;100.00;99491.13;5053301;28;20265;-81
2023/07/31 09:54:56;;;;;;;2.73;2.53;;;;;;;17.41;100.00;99501.31;5053755;28;20571;-83
2023/07/31 09:57:25;;;;;;;2.57;2.37;;;;;;;17.37;100.00;99498.97;5054259;28;20232;-83
2023/07/31 09:59:55;;;;;;;3.03;2.80;;;;;;;17.41;100.00;99496.03;5053853;28;20702;-82
2023/07/31 10:02:25;;;;;;;3.50;2.90;;;;;;;17.44;100.00;99495.84;5053635;28;20697;-84
2023/07/31 10:04:57;;;;;;;3.83;3.00;;;;;;;17.36;100.00;99494.59;5043174;28;20212;-83
2023/07/31 10:07:26;;;;;;;2.90;2.70;;;;;;;17.47;100.00;99490.38;5048189;28;20287;-82
2023/07/31 10:09:55;;;;;;;3.50;3.20;;;;;;;17.57;100.00;99495.06;5053845;28;20234;-83
2023/07/31 10:12:28;;;;;;;3.70;3.40;;;;;;;17.63;100.00;99514.00;5045932;28;20281;-83
2023/07/31 10:14:55;;;;;;;3.87;3.47;;;;;;;17.84;100.00;99497.78;5037474;28;20291;-83
2023/07/31 10:17:26;;;;;;;3.50;3.20;;;;;;;17.85;100.00;99510.88;5054148;28;20264;-82
2023/07/31 10:19:54;;;;;;;3.00;2.80;;;;;;;17.94;100.00;99508.56;5054017;28;20232;-84
2023/07/31 10:22:21;;;;;;;3.40;2.97;;;;;;;17.81;100.00;99551.56;5050924;28;20210;-83
2023/07/31 10:24:51;;;;;;;3.60;3.30;;;;;;;17.91;100.00;99538.66;5058182;28;20225;-83
2023/07/31 10:27:17;;;;;;;3.60;3.00;;;;;;;17.90;100.00;99520.28;5059289;28;20212;-83
2023/07/31 10:29:47;;;;;;;3.57;3.20;;;;;;;17.97;100.00;99517.16;5050857;28;20229;-81
2023/07/31 10:32:15;;;;;;;3.97;3.33;;;;;;;17.96;100.00;99512.84;5048190;28;20201;-82
2023/07/31 10:34:42;;;;;;;3.53;3.33;;;;;;;18.05;100.00;99511.38;5056037;28;20211;-83
2023/07/31 10:37:22;;;;;;;4.27;2.73;;;;;;;18.21;100.00;99503.31;5046733;28;20210;-80
2023/07/31 10:39:58;;;;;;;3.90;3.30;;;;;;;18.23;100.00;99499.59;5058453;28;20231;-82
2023/07/31 10:42:33;;;;;;;2.73;2.53;;;;;;;18.23;100.00;99506.69;5058846;28;20208;-83
2023/07/31 10:45:03;;;;;;;3.27;3.03;;;;;;;18.37;100.00;99511.91;5045572;28;20213;-81
2023/07/31 10:47:29;;;;;;;3.67;3.37;;;;;;;18.63;100.00;99501.38;5057968;28;20212;-79
2023/07/31 10:50:18;;;;;;;3.67;3.37;;;;;;;18.96;100.00;99478.94;5061978;28;20232;-82
2023/07/31 10:52:48;;;;;;;2.53;2.33;;;;;;;19.10;100.00;99515.00;5065503;28;20235;-81
2023/07/31 10:55:27;;;;;;;3.07;2.53;;;;;;;19.10;100.00;99570.56;5064374;28;20259;-82
2023/07/31 10:57:54;;;;;;;3.47;2.80;;;;;;;19.18;100.00;99590.22;5046304;28;20701;-80
2023/07/31 11:00:23;;;;;;;3.20;2.70;;;;;;;19.08;100.00;99614.78;5049024;28;20223;-81
2023/07/31 11:03:04;;;;;;;2.40;2.30;;;;;;;19.20;99.78;99635.09;5036858;28;20712;-80
2023/07/31 11:05:42;;;;;;;3.50;2.30;;;;;;;19.27;98.40;99649.63;5058612;28;20200;-83
2023/07/31 11:08:12;;;;;;;2.80;2.50;;;;;;;19.44;99.59;99638.75;5060440;28;20200;-82
2023/07/31 11:10:40;;;;;;;2.83;2.40;;;;;;;19.50;98.63;99645.38;5051888;28;20238;-81
2023/07/31 11:13:07;;;;;;;3.60;2.57;;;;;;;19.61;99.39;99642.03;5043206;28;20205;-81
2023/07/31 11:15:33;;;;;;;2.80;2.43;;;;;;;19.44;96.24;99683.75;5058338;28;20235;-79
2023/07/31 11:18:03;;;;;;;2.23;1.97;;;;;;;19.20;94.20;99699.44;5059817;28;20243;-81
2023/07/31 11:20:30;;;;;;;3.87;2.57;;;;;;;19.34;97.55;99677.34;5062342;28;20623;-82
2023/07/31 11:22:59;;;;;;;3.20;2.23;;;;;;;19.51;98.38;99659.50;5053285;28;20583;-80
2023/07/31 11:25:26;;;;;;;2.90;2.43;;;;;;;19.64;99.47;99641.78;5041634;28;20202;-80
2023/07/31 11:27:56;;;;;;;3.07;2.77;;;;;;;19.60;97.94;99643.84;5044541;28;20213;-81
2023/07/31 11:30:22;;;;;;;3.00;2.17;;;;;;;19.60;97.21;99649.13;5044093;28;20735;-81
2023/07/31 11:32:49;;;;;;;3.60;2.40;;;;;;;19.64;96.42;99663.84;5059922;28;20218;-80
2023/07/31 11:35:16;;;;;;;2.50;2.00;;;;;;;19.43;94.76;99681.19;5047909;28;20689;-82